createdAt,value
2019-01-16T00:00:48.957Z,98402.83
2019-01-16T00:03:38.403Z,98412.09
2019-01-16T00:06:27.852Z,98425.80
2019-01-16T00:09:17.176Z,98429.08
2019-01-16T00:12:06.728Z,98432.21
2019-01-16T00:14:54.622Z,98430.36
2019-01-16T00:17:44.016Z,98436.64
2019-01-16T00:20:33.443Z,98439.11
2019-01-16T00:23:22.754Z,98451.34
2019-01-16T00:26:12.079Z,98443.55
2019-01-16T00:28:50.836Z,98446.03
2019-01-16T00:31:33.146Z,98438.63
2019-01-16T00:34:22.826Z,98447.78
2019-01-16T00:37:12.249Z,98458.42
2019-01-16T00:39:58.943Z,98464.73
2019-01-16T00:42:48.196Z,98466.12
2019-01-16T00:45:30.673Z,98464.06
2019-01-16T00:48:24.496Z,98466.53
2019-01-16T00:51:11.073Z,98463.06
2019-01-16T00:53:51.698Z,98471.94
2019-01-16T00:56:41.179Z,98473.61
2019-01-16T00:59:30.702Z,98471.75
2019-01-16T01:02:20.219Z,98477.45
2019-01-16T01:05:07.772Z,98478.45
2019-01-16T01:07:50.809Z,98483.09
2019-01-16T01:10:28.859Z,98490.55
2019-01-16T01:13:18.252Z,98492.34
2019-01-16T01:16:07.597Z,98488.98
2019-01-16T01:18:51.127Z,98493.63
2019-01-16T01:21:40.600Z,98492.25
2019-01-16T01:24:30.033Z,98499.81
2019-01-16T01:27:15.880Z,98500.90
2019-01-16T01:30:05.557Z,98501.22
2019-01-16T01:32:55.006Z,98499.84
2019-01-16T01:35:44.542Z,98504.07
2019-01-16T01:38:32.026Z,98511.66
2019-01-16T01:41:21.576Z,98504.74
2019-01-16T01:43:58.179Z,98509.20
2019-01-16T01:46:47.632Z,98507.30
2019-01-16T01:49:36.968Z,98506.02
2019-01-16T01:52:27.703Z,98510.54
2019-01-16T01:55:08.033Z,98509.16
2019-01-16T01:57:53.956Z,98512.81
2019-01-16T02:00:43.365Z,98506.13
2019-01-16T02:03:32.170Z,98513.00
2019-01-16T02:06:22.207Z,98510.73
2019-01-16T02:09:11.515Z,98506.50
2019-01-16T02:12:01.482Z,98515.75
2019-01-16T02:14:48.986Z,98509.54
2019-01-16T02:17:38.400Z,98515.37
2019-01-16T02:20:19.343Z,98522.25
2019-01-16T02:23:08.753Z,98517.03
2019-01-16T02:25:58.872Z,98521.77
2019-01-16T02:28:43.058Z,98534.39
2019-01-16T02:31:27.228Z,98532.59
2019-01-16T02:34:14.602Z,98537.23
2019-01-16T02:36:55.922Z,98525.71
2019-01-16T02:39:45.238Z,98539.09
2019-01-16T02:42:34.728Z,98536.53
2019-01-16T02:45:25.444Z,98532.40
2019-01-16T02:48:12.702Z,98530.02
2019-01-16T02:51:02.239Z,98535.53
2019-01-16T02:53:51.640Z,98530.41
2019-01-16T02:56:36.648Z,98533.97
2019-01-16T02:59:26.051Z,98538.98
2019-01-16T03:02:15.796Z,98536.81
2019-01-16T03:05:04.967Z,98535.05
2019-01-16T03:07:54.265Z,98538.80
2019-01-16T03:10:43.537Z,98537.33
2019-01-16T03:13:27.623Z,98533.10
2019-01-16T03:16:16.925Z,98535.77
2019-01-16T03:19:06.241Z,98549.05
2019-01-16T03:21:55.547Z,98547.57
2019-01-16T03:24:44.847Z,98548.75
2019-01-16T03:27:34.106Z,98550.13
2019-01-16T03:30:24.911Z,98547.28
2019-01-16T03:33:14.178Z,98554.97
2019-01-16T03:36:03.738Z,98553.37
2019-01-16T03:38:50.857Z,98559.48
2019-01-16T03:41:28.412Z,98554.88
2019-01-16T03:44:05.422Z,98557.92
2019-01-16T03:46:54.833Z,98558.92
2019-01-16T03:49:33.415Z,98560.30
2019-01-16T03:52:22.954Z,98553.61
2019-01-16T03:55:04.762Z,98558.55
2019-01-16T03:57:54.126Z,98562.59
2019-01-16T04:00:43.523Z,98556.88
2019-01-16T04:03:32.923Z,98559.03
2019-01-16T04:06:22.276Z,98564.66
2019-01-16T04:09:11.647Z,98568.80
2019-01-16T04:12:01.046Z,98573.63
2019-01-16T04:14:50.423Z,98571.17
2019-01-16T04:17:39.736Z,98574.02
2019-01-16T04:20:15.832Z,98572.08
2019-01-16T04:22:53.743Z,98577.30
2019-01-16T04:25:43.001Z,98579.19
2019-01-16T04:28:21.242Z,98584.60
2019-01-16T04:31:10.537Z,98580.95
2019-01-16T04:33:59.949Z,98586.27
2019-01-16T04:36:49.113Z,98578.77
2019-01-16T04:39:38.458Z,98587.45
2019-01-16T04:42:20.704Z,98589.25
2019-01-16T04:45:09.272Z,98579.96
2019-01-16T04:47:53.298Z,98593.77
2019-01-16T04:50:42.572Z,98587.65
2019-01-16T04:53:32.037Z,98603.34
2019-01-16T04:56:21.303Z,98596.14
2019-01-16T04:59:10.606Z,98592.02
2019-01-16T05:01:55.886Z,98596.23
2019-01-16T05:04:45.173Z,98602.35
2019-01-16T05:07:33.697Z,98605.91
2019-01-16T05:10:23.858Z,98606.59
2019-01-16T05:13:13.296Z,98602.84
2019-01-16T05:16:03.116Z,98599.13
2019-01-16T05:18:48.512Z,98606.21
2019-01-16T05:21:37.843Z,98606.59
2019-01-16T05:24:27.252Z,98611.85
2019-01-16T05:27:16.613Z,98611.14
2019-01-16T05:29:59.237Z,98607.02
2019-01-16T05:32:48.837Z,98608.39
2019-01-16T05:35:38.878Z,98612.85
2019-01-16T05:38:24.102Z,98615.52
2019-01-16T05:41:13.402Z,98627.05
2019-01-16T05:44:02.653Z,98615.22
2019-01-16T05:46:48.665Z,98607.72
2019-01-16T05:49:38.058Z,98629.90
2019-01-16T05:52:27.586Z,98625.19
2019-01-16T05:55:16.967Z,98626.57
2019-01-16T05:58:06.361Z,98632.70
2019-01-16T06:00:55.831Z,98634.84
2019-01-16T06:03:45.207Z,98625.58
2019-01-16T06:06:34.997Z,98641.86
2019-01-16T06:09:21.424Z,98647.38
2019-01-16T06:12:10.687Z,98654.07
2019-01-16T06:15:00.243Z,98656.64
2019-01-16T06:17:49.848Z,98660.00
2019-01-16T06:20:39.733Z,98670.36
2019-01-16T06:23:24.049Z,98668.27
2019-01-16T06:26:13.508Z,98664.84
2019-01-16T06:28:54.593Z,98676.86
2019-01-16T06:31:37.338Z,98679.91
2019-01-16T06:34:26.870Z,98684.66
2019-01-16T06:37:16.303Z,98686.83
2019-01-16T06:40:05.657Z,98692.34
2019-01-16T06:42:55.448Z,98697.48
2019-01-16T06:45:44.928Z,98697.09
2019-01-16T06:48:26.997Z,98698.67
2019-01-16T06:51:16.324Z,98702.23
2019-01-16T06:54:02.854Z,98710.63
2019-01-16T06:56:52.094Z,98713.48
2019-01-16T06:59:41.474Z,98716.81
2019-01-16T07:02:30.801Z,98714.47
2019-01-16T07:05:20.298Z,98724.03
2019-01-16T07:08:09.812Z,98725.83
2019-01-16T07:10:52.758Z,98736.47
2019-01-16T07:13:42.164Z,98745.45
2019-01-16T07:16:27.841Z,98730.83
2019-01-16T07:19:17.282Z,98746.34
2019-01-16T07:22:06.573Z,98749.58
2019-01-16T07:24:52.308Z,98747.02
2019-01-16T07:27:41.777Z,98751.47
2019-01-16T07:30:32.146Z,98756.47
2019-01-16T07:33:21.392Z,98762.12
2019-01-16T07:36:11.645Z,98757.88
2019-01-16T07:39:01.111Z,98766.67
2019-01-16T07:41:50.458Z,98779.27
2019-01-16T07:44:39.773Z,98781.16
2019-01-16T07:47:29.188Z,98785.97
2019-01-16T07:50:17.165Z,98793.28
2019-01-16T07:53:02.485Z,98790.05
2019-01-16T07:55:51.908Z,98796.73
2019-01-16T07:58:41.592Z,98799.78
2019-01-16T08:01:28.334Z,98790.25
2019-01-16T08:04:17.696Z,98809.96
2019-01-16T08:07:07.205Z,98803.69
2019-01-16T08:09:53.898Z,98810.86
2019-01-16T08:12:43.130Z,98810.86
2019-01-16T08:15:32.778Z,98816.70
2019-01-16T08:18:17.438Z,98812.61
2019-01-16T08:21:07.011Z,98817.45
2019-01-16T08:23:56.652Z,98827.41
2019-01-16T08:26:46.243Z,98822.88
2019-01-16T08:29:27.747Z,98830.00
2019-01-16T08:32:13.105Z,98811.38
2019-01-16T08:35:02.829Z,98817.38
2019-01-16T08:37:52.847Z,98821.22
2019-01-16T08:40:42.217Z,98816.01
2019-01-16T08:43:22.827Z,98822.14
2019-01-16T08:46:11.197Z,98814.73
2019-01-16T08:48:57.408Z,98815.92
2019-01-16T08:51:46.821Z,98823.34
2019-01-16T08:54:36.113Z,98820.48
2019-01-16T08:57:25.916Z,98823.77
2019-01-16T09:00:15.268Z,98823.20
2019-01-16T09:03:00.626Z,98827.73
2019-01-16T09:05:49.697Z,98827.83
2019-01-16T09:08:39.132Z,98820.05
2019-01-16T09:11:28.456Z,98845.13
2019-01-16T09:14:17.884Z,98830.92
2019-01-16T09:17:07.551Z,98840.39
2019-01-16T09:19:47.654Z,98851.66
2019-01-16T09:22:38.092Z,98850.80
2019-01-16T09:25:17.883Z,98849.80
2019-01-16T09:28:05.174Z,98853.54
2019-01-16T09:30:54.507Z,98853.54
2019-01-16T09:33:43.916Z,98842.19
2019-01-16T09:36:27.986Z,98859.77
2019-01-16T09:39:17.357Z,98853.37
2019-01-16T09:42:00.987Z,98855.23
2019-01-16T09:44:50.212Z,98848.66
2019-01-16T09:47:29.756Z,98857.45
2019-01-16T09:50:08.217Z,98847.61
2019-01-16T09:52:57.499Z,98854.74
2019-01-16T09:55:46.848Z,98854.55
2019-01-16T09:58:36.302Z,98847.94
2019-01-16T10:01:19.888Z,98842.23
2019-01-16T10:04:09.197Z,98844.40
2019-01-16T10:06:48.406Z,98840.83
2019-01-16T10:09:37.726Z,98847.36
2019-01-16T10:12:27.298Z,98846.78
2019-01-16T10:15:16.758Z,98835.09
2019-01-16T10:18:06.047Z,98835.39
2019-01-16T10:20:56.075Z,98841.91
2019-01-16T10:23:37.383Z,98841.00
2019-01-16T10:26:26.917Z,98836.77
2019-01-16T10:29:16.496Z,98840.05
2019-01-16T10:31:57.151Z,98826.91
2019-01-16T10:34:42.528Z,98830.86
2019-01-16T10:37:30.305Z,98818.50
2019-01-16T10:40:19.678Z,98827.78
2019-01-16T10:43:08.979Z,98823.34
2019-01-16T10:45:58.408Z,98821.84
2019-01-16T10:48:49.842Z,98819.98
2019-01-16T10:51:37.338Z,98810.47
2019-01-16T10:54:17.139Z,98811.56
2019-01-16T10:57:06.555Z,98807.33
2019-01-16T10:59:50.775Z,98814.65
2019-01-16T11:02:32.693Z,98810.59
2019-01-16T11:05:16.309Z,98815.03
2019-01-16T11:07:54.148Z,98818.41
2019-01-16T11:10:43.616Z,98815.61
2019-01-16T11:13:32.850Z,98804.86
2019-01-16T11:16:22.329Z,98797.86
2019-01-16T11:19:08.832Z,98801.20
2019-01-16T11:21:58.222Z,98802.39
2019-01-16T11:24:46.256Z,98791.92
2019-01-16T11:27:25.498Z,98794.88
2019-01-16T11:30:14.952Z,98790.93
2019-01-16T11:33:04.274Z,98791.80
2019-01-16T11:35:53.582Z,98781.23
2019-01-16T11:38:43.716Z,98778.28
2019-01-16T11:41:30.942Z,98787.14
2019-01-16T11:44:20.390Z,98781.91
2019-01-16T11:47:08.657Z,98796.03
2019-01-16T11:49:58.015Z,98790.77
2019-01-16T11:52:41.981Z,98789.28
2019-01-16T11:55:31.476Z,98791.63
2019-01-16T11:58:20.803Z,98794.19
2019-01-16T12:01:02.166Z,98787.77
2019-01-16T12:03:51.556Z,98783.83
2019-01-16T12:06:28.984Z,98785.48
2019-01-16T12:09:18.833Z,98786.49
2019-01-16T12:12:08.054Z,98780.11
2019-01-16T12:14:54.174Z,98786.56
2019-01-16T12:17:33.752Z,98773.63
2019-01-16T12:20:23.330Z,98778.48
2019-01-16T12:23:12.648Z,98777.90
2019-01-16T12:25:52.729Z,98779.27
2019-01-16T12:28:40.080Z,98777.41
2019-01-16T12:31:29.478Z,98774.84
2019-01-16T12:34:11.672Z,98773.94
2019-01-16T12:37:01.080Z,98773.84
2019-01-16T12:39:50.303Z,98772.78
2019-01-16T12:42:39.632Z,98761.61
2019-01-16T12:45:29.352Z,98768.70
2019-01-16T12:48:10.658Z,98768.60
2019-01-16T12:50:55.028Z,98771.17
2019-01-16T12:53:36.201Z,98768.23
2019-01-16T12:56:25.662Z,98764.77
2019-01-16T12:59:15.100Z,98767.32
2019-01-16T13:02:04.483Z,98756.47
2019-01-16T13:04:50.097Z,98754.48
2019-01-16T13:07:39.493Z,98749.44
2019-01-16T13:10:24.877Z,98757.66
2019-01-16T13:13:14.237Z,98747.09
2019-01-16T13:16:03.832Z,98740.73
2019-01-16T13:18:54.117Z,98747.47
2019-01-16T13:21:43.582Z,98742.34
2019-01-16T13:24:32.852Z,98749.75
2019-01-16T13:27:22.358Z,98747.47
2019-01-16T13:30:11.643Z,98748.38
2019-01-16T13:33:00.979Z,98748.77
2019-01-16T13:35:50.333Z,98744.50
2019-01-16T13:38:29.664Z,98742.64
2019-01-16T13:41:13.712Z,98742.73
2019-01-16T13:43:59.689Z,98744.03
2019-01-16T13:46:49.078Z,98739.66
2019-01-16T13:49:38.425Z,98739.38
2019-01-16T13:52:27.893Z,98736.51
2019-01-16T13:55:17.179Z,98729.68
2019-01-16T13:58:06.622Z,98742.04
2019-01-16T14:00:53.713Z,98728.31
2019-01-16T14:03:31.407Z,98733.45
2019-01-16T14:06:20.687Z,98725.14
2019-01-16T14:09:10.478Z,98724.95
2019-01-16T14:11:59.870Z,98727.70
2019-01-16T14:14:49.357Z,98720.52
2019-01-16T14:17:38.663Z,98726.33
2019-01-16T14:20:32.815Z,98726.88
2019-01-16T14:23:22.156Z,98725.79
2019-01-16T14:26:04.111Z,98723.23
2019-01-16T14:28:53.447Z,98720.95
2019-01-16T14:31:42.736Z,98715.43
2019-01-16T14:34:32.056Z,98718.80
2019-01-16T14:37:21.427Z,98723.42
2019-01-16T14:40:10.667Z,98718.58
2019-01-16T14:43:00.110Z,98717.09
2019-01-16T14:45:49.496Z,98713.44
2019-01-16T14:48:30.727Z,98717.67
2019-01-16T14:51:20.201Z,98714.15
2019-01-16T14:54:09.578Z,98709.30
2019-01-16T14:56:54.053Z,98713.92
2019-01-16T14:59:43.358Z,98715.11
2019-01-16T15:02:31.134Z,98708.41
2019-01-16T15:05:22.197Z,98705.84
2019-01-16T15:08:11.585Z,98706.22
2019-01-16T15:11:00.902Z,98705.52
2019-01-16T15:14:00.195Z,98706.22
2019-01-16T15:16:49.903Z,98713.02
2019-01-16T15:19:39.315Z,98718.81
2019-01-16T15:22:20.925Z,98711.83
2019-01-16T15:25:06.157Z,98709.84
2019-01-16T15:27:55.512Z,98699.90
2019-01-16T15:30:45.459Z,98714.77
2019-01-16T15:33:34.870Z,98711.54
2019-01-16T15:36:24.657Z,98711.63
2019-01-16T15:39:14.023Z,98715.58
2019-01-16T15:41:54.598Z,98713.01
2019-01-16T15:44:44.102Z,98709.64
2019-01-16T15:47:33.604Z,98700.09
2019-01-16T15:50:19.853Z,98701.95
2019-01-16T15:53:09.368Z,98698.52
2019-01-16T15:55:59.813Z,98700.95
2019-01-16T15:58:49.203Z,98696.63
2019-01-16T16:01:34.317Z,98700.47
2019-01-16T16:04:13.016Z,98705.89
2019-01-16T16:07:02.582Z,98703.70
2019-01-16T16:09:52.033Z,98693.35
2019-01-16T16:12:42.667Z,98696.43
2019-01-16T16:15:37.733Z,98693.86
2019-01-16T16:18:30.578Z,98688.13
2019-01-16T16:21:23.732Z,98685.75
2019-01-16T16:24:13.546Z,98686.55
2019-01-16T16:27:03.097Z,98683.98
2019-01-16T16:29:56.643Z,98681.14
2019-01-16T16:32:39.853Z,98683.32
2019-01-16T16:35:29.528Z,98679.53
2019-01-16T16:38:19.078Z,98676.10
2019-01-16T16:41:02.367Z,98671.64
2019-01-16T16:43:49.947Z,98673.73
2019-01-16T16:46:46.926Z,98676.48
2019-01-16T16:49:36.443Z,98678.43
2019-01-16T16:52:26.212Z,98673.20
2019-01-16T16:55:15.762Z,98676.24
2019-01-16T16:57:57.742Z,98677.61
2019-01-16T17:00:47.205Z,98669.92
2019-01-16T17:03:40.222Z,98675.56
2019-01-16T17:06:31.116Z,98672.76
2019-01-16T17:09:20.529Z,98669.20
2019-01-16T17:12:23.097Z,98674.74
2019-01-16T17:15:12.479Z,98670.19
2019-01-16T17:18:04.677Z,98669.38
2019-01-16T17:20:45.314Z,98665.95
2019-01-16T17:23:37.882Z,98665.14
2019-01-16T17:26:27.366Z,98663.67
2019-01-16T17:29:19.574Z,98653.33
2019-01-16T17:32:12.533Z,98658.13
2019-01-16T17:35:01.958Z,98656.27
2019-01-16T17:37:49.986Z,98649.95
2019-01-16T17:40:44.023Z,98651.13
2019-01-16T17:43:31.182Z,98643.73
2019-01-16T17:46:25.533Z,98637.09
2019-01-16T17:49:18.454Z,98640.93
2019-01-16T17:52:07.913Z,98637.79
2019-01-16T17:54:58.292Z,98637.97
2019-01-16T17:57:51.469Z,98635.61
2019-01-16T18:00:43.157Z,98629.80
2019-01-16T18:03:36.997Z,98628.11
2019-01-16T18:06:25.668Z,98621.12
2019-01-16T18:09:15.769Z,98619.84
2019-01-16T18:12:06.463Z,98616.08
2019-01-16T18:14:54.393Z,98619.59
2019-01-16T18:17:44.966Z,98618.59
2019-01-16T18:20:38.944Z,98621.34
2019-01-16T18:23:32.542Z,98624.58
2019-01-16T18:26:22.057Z,98620.50
2019-01-16T18:29:15.528Z,98615.17
2019-01-16T18:32:06.087Z,98610.85
2019-01-16T18:34:55.597Z,98609.85
2019-01-16T18:37:41.156Z,98611.52
2019-01-16T18:40:39.249Z,98613.59
2019-01-16T18:43:23.727Z,98601.17
2019-01-16T18:46:15.537Z,98594.77
2019-01-16T18:49:07.762Z,98591.03
2019-01-16T18:51:57.818Z,98583.91
2019-01-16T18:54:50.708Z,98582.05
2019-01-16T18:57:31.893Z,98578.48
2019-01-16T19:00:22.531Z,98571.61
2019-01-16T19:03:18.719Z,98576.20
2019-01-16T19:06:11.663Z,98575.92
2019-01-16T19:09:01.204Z,98573.73
2019-01-16T19:11:54.304Z,98564.20
2019-01-16T19:14:43.908Z,98555.53
2019-01-16T19:17:34.803Z,98556.80
2019-01-16T19:20:21.433Z,98547.69
2019-01-16T19:23:11.278Z,98547.95
2019-01-16T19:26:03.091Z,98544.27
2019-01-16T19:28:56.062Z,98542.86
2019-01-16T19:31:51.651Z,98539.17
2019-01-16T19:34:36.018Z,98537.27
2019-01-16T19:37:17.792Z,98541.25
2019-01-16T19:40:08.366Z,98533.82
2019-01-16T19:43:00.044Z,98535.55
2019-01-16T19:45:52.002Z,98540.63
2019-01-16T19:48:49.039Z,98544.91
2019-01-16T19:51:47.583Z,98538.34
2019-01-16T19:54:33.027Z,98534.70
2019-01-16T19:57:28.683Z,98529.20
2019-01-16T20:00:13.979Z,98534.54
2019-01-16T20:03:01.297Z,98530.14
2019-01-16T20:05:54.669Z,98528.59
2019-01-16T20:08:45.093Z,98533.41
2019-01-16T20:11:35.992Z,98535.64
2019-01-16T20:14:31.884Z,98530.59
2019-01-16T20:17:19.667Z,98521.23
2019-01-16T20:20:06.392Z,98517.23
2019-01-16T20:22:59.016Z,98517.24
2019-01-16T20:25:52.397Z,98523.63
2019-01-16T20:28:43.478Z,98515.64
2019-01-16T20:31:33.037Z,98501.66
2019-01-16T20:34:22.667Z,98506.80
2019-01-16T20:37:08.722Z,98498.03
2019-01-16T20:40:00.228Z,98494.52
2019-01-16T20:42:51.346Z,98484.20
2019-01-16T20:45:51.020Z,98474.78
2019-01-16T20:48:36.037Z,98477.98
2019-01-16T20:51:30.829Z,98490.10
2019-01-16T20:54:22.178Z,98496.12
2019-01-16T20:57:11.984Z,98497.56
2019-01-16T21:00:07.758Z,98489.47
2019-01-16T21:03:02.726Z,98478.03
2019-01-16T21:06:08.357Z,98467.89
2019-01-16T21:08:42.240Z,98477.14
2019-01-16T21:11:36.742Z,98474.86
2019-01-16T21:14:30.793Z,98470.59
2019-01-16T21:17:23.135Z,98467.55
2019-01-16T21:20:13.268Z,98454.49
2019-01-16T21:23:02.783Z,98427.80
2019-01-16T21:26:04.544Z,98420.94
2019-01-16T21:28:55.049Z,98416.92
2019-01-16T21:31:45.466Z,98424.27
2019-01-16T21:34:43.647Z,98426.32
2019-01-16T21:37:22.748Z,98434.03
2019-01-16T21:40:12.277Z,98428.10
2019-01-16T21:43:05.183Z,98421.17
2019-01-16T21:45:54.654Z,98416.31
2019-01-16T21:48:42.792Z,98418.64
2019-01-16T21:51:32.227Z,98410.77
2019-01-16T21:54:21.678Z,98416.30
2019-01-16T21:57:11.387Z,98407.78
2019-01-16T22:00:00.887Z,98398.21
2019-01-16T22:02:50.786Z,98390.00
2019-01-16T22:05:37.533Z,98387.62
2019-01-16T22:08:27.418Z,98393.17
2019-01-16T22:11:08.115Z,98387.10
2019-01-16T22:13:53.311Z,98377.05
2019-01-16T22:16:42.957Z,98367.91
2019-01-16T22:19:32.915Z,98362.32
2019-01-16T22:22:13.132Z,98367.09
2019-01-16T22:25:02.568Z,98366.84
2019-01-16T22:27:51.957Z,98370.19
2019-01-16T22:30:41.432Z,98357.18
2019-01-16T22:33:30.769Z,98344.20
2019-01-16T22:36:25.377Z,98345.48
2019-01-16T22:39:08.827Z,98333.85
2019-01-16T22:42:00.118Z,98312.18
2019-01-16T22:44:52.040Z,98327.00
2019-01-16T22:47:41.554Z,98318.95
2019-01-16T22:50:22.447Z,98310.93
2019-01-16T22:53:11.788Z,98306.86
2019-01-16T22:56:00.267Z,98297.61
2019-01-16T22:58:37.069Z,98286.17
2019-01-16T23:01:17.087Z,98290.44
2019-01-16T23:04:06.566Z,98284.86
2019-01-16T23:06:56.120Z,98286.51
2019-01-16T23:09:35.766Z,98271.31
2019-01-16T23:12:25.326Z,98259.41
2019-01-16T23:15:14.709Z,98261.86
2019-01-16T23:18:04.063Z,98256.55
2019-01-16T23:20:53.426Z,98273.77
2019-01-16T23:23:42.807Z,98274.99
2019-01-16T23:26:32.117Z,98284.30
2019-01-16T23:29:13.374Z,98285.41
2019-01-16T23:31:57.906Z,98275.61
2019-01-16T23:34:46.102Z,98276.20
2019-01-16T23:37:35.526Z,98263.49
2019-01-16T23:40:17.807Z,98261.88
2019-01-16T23:43:07.166Z,98262.67
2019-01-16T23:45:56.642Z,98250.13
2019-01-16T23:48:36.312Z,98237.89
2019-01-16T23:51:25.848Z,98248.20
2019-01-16T23:54:15.644Z,98243.95
2019-01-16T23:56:56.477Z,98251.09
2019-01-16T23:59:45.810Z,98245.61
